sensor_id;sensor_type;location;lat;lon;timestamp;pressure;altitude;pressure_sealevel;temperature;humidity
55271;BME280;41132;47.162;9.470;2023-06-22T00:12:55;96334.50;;;22.16;94.61
55271;BME280;41132;47.162;9.470;2023-06-22T00:15:20;96336.50;;;22.09;95.71
55271;BME280;41132;47.162;9.470;2023-06-22T00:17:46;96329.66;;;22.37;93.50
55271;BME280;41132;47.162;9.470;2023-06-22T00:20:11;96326.66;;;22.21;95.50
55271;BME280;41132;47.162;9.470;2023-06-22T00:22:37;96313.72;;;22.30;92.78
55271;BME280;41132;47.162;9.470;2023-06-22T00:25:06;96319.66;;;22.32;90.43
55271;BME280;41132;47.162;9.470;2023-06-22T00:27:32;96322.44;;;22.25;93.05
55271;BME280;41132;47.162;9.470;2023-06-22T00:29:57;96324.00;;;22.21;93.09
55271;BME280;41132;47.162;9.470;2023-06-22T00:32:23;96315.47;;;22.13;94.38
55271;BME280;41132;47.162;9.470;2023-06-22T00:34:48;96315.69;;;22.11;93.39
55271;BME280;41132;47.162;9.470;2023-06-22T00:37:14;96328.84;;;22.24;92.50
55271;BME280;41132;47.162;9.470;2023-06-22T00:39:39;96304.78;;;22.01;94.68
55271;BME280;41132;47.162;9.470;2023-06-22T00:42:05;96325.69;;;22.04;90.89
55271;BME280;41132;47.162;9.470;2023-06-22T00:44:30;96305.72;;;22.06;90.14
55271;BME280;41132;47.162;9.470;2023-06-22T00:46:56;96314.09;;;22.10;91.21
55271;BME280;41132;47.162;9.470;2023-06-22T00:49:21;96300.84;;;21.92;92.02
55271;BME280;41132;47.162;9.470;2023-06-22T00:51:46;96308.88;;;21.92;92.99
55271;BME280;41132;47.162;9.470;2023-06-22T00:54:13;96313.63;;;22.01;93.55
55271;BME280;41132;47.162;9.470;2023-06-22T00:56:40;96302.13;;;22.01;89.86
55271;BME280;41132;47.162;9.470;2023-06-22T00:59:06;96320.34;;;22.04;91.64
55271;BME280;41132;47.162;9.470;2023-06-22T01:01:32;96307.69;;;21.99;91.78
55271;BME280;41132;47.162;9.470;2023-06-22T01:03:59;96325.47;;;22.17;88.36
55271;BME280;41132;47.162;9.470;2023-06-22T01:06:35;96323.28;;;22.26;87.85
55271;BME280;41132;47.162;9.470;2023-06-22T01:09:31;96310.81;;;22.20;88.85
55271;BME280;41132;47.162;9.470;2023-06-22T01:12:00;96299.53;;;22.18;89.57
55271;BME280;41132;47.162;9.470;2023-06-22T01:16:55;96294.00;;;22.31;82.68
55271;BME280;41132;47.162;9.470;2023-06-22T01:22:00;96300.97;;;22.72;77.01
55271;BME280;41132;47.162;9.470;2023-06-22T01:24:36;96307.97;;;22.73;73.69
55271;BME280;41132;47.162;9.470;2023-06-22T01:30:07;96291.84;;;23.43;51.32
55271;BME280;41132;47.162;9.470;2023-06-22T01:32:36;96288.81;;;23.85;51.01
55271;BME280;41132;47.162;9.470;2023-06-22T01:35:05;96277.94;;;23.91;48.49
55271;BME280;41132;47.162;9.470;2023-06-22T01:37:32;96294.94;;;24.19;46.83
55271;BME280;41132;47.162;9.470;2023-06-22T01:39:59;96295.22;;;24.39;46.89
55271;BME280;41132;47.162;9.470;2023-06-22T01:42:25;96278.84;;;24.58;44.94
55271;BME280;41132;47.162;9.470;2023-06-22T01:44:54;96281.00;;;24.83;44.63
55271;BME280;41132;47.162;9.470;2023-06-22T01:47:22;96294.97;;;25.07;43.26
55271;BME280;41132;47.162;9.470;2023-06-22T01:49:49;96293.91;;;25.35;43.10
55271;BME280;41132;47.162;9.470;2023-06-22T01:52:16;96292.75;;;25.26;44.52
55271;BME280;41132;47.162;9.470;2023-06-22T01:54:42;96291.88;;;25.20;43.43
55271;BME280;41132;47.162;9.470;2023-06-22T01:57:07;96284.28;;;25.12;44.49
55271;BME280;41132;47.162;9.470;2023-06-22T02:02:09;96275.72;;;25.42;42.14
55271;BME280;41132;47.162;9.470;2023-06-22T02:04:52;96291.47;;;25.66;40.66
55271;BME280;41132;47.162;9.470;2023-06-22T02:07:21;96286.88;;;25.61;42.12
55271;BME280;41132;47.162;9.470;2023-06-22T02:09:50;96293.00;;;25.57;42.58
55271;BME280;41132;47.162;9.470;2023-06-22T02:12:18;96294.69;;;25.63;42.04
55271;BME280;41132;47.162;9.470;2023-06-22T02:14:46;96290.69;;;25.71;41.20
55271;BME280;41132;47.162;9.470;2023-06-22T02:17:12;96288.88;;;25.76;41.07
55271;BME280;41132;47.162;9.470;2023-06-22T02:19:40;96296.03;;;25.66;42.09
55271;BME280;41132;47.162;9.470;2023-06-22T02:22:06;96272.59;;;25.56;41.92
55271;BME280;41132;47.162;9.470;2023-06-22T02:24:32;96288.50;;;25.62;41.70
55271;BME280;41132;47.162;9.470;2023-06-22T02:26:59;96291.25;;;25.73;40.69
55271;BME280;41132;47.162;9.470;2023-06-22T02:29:24;96295.34;;;25.75;40.85
55271;BME280;41132;47.162;9.470;2023-06-22T02:31:50;96291.00;;;25.74;41.59
55271;BME280;41132;47.162;9.470;2023-06-22T02:34:15;96295.09;;;25.82;39.97
55271;BME280;41132;47.162;9.470;2023-06-22T02:36:47;96303.84;;;25.99;40.05
55271;BME280;41132;47.162;9.470;2023-06-22T02:39:25;96290.97;;;26.01;40.06
55271;BME280;41132;47.162;9.470;2023-06-22T02:41:52;96295.56;;;26.06;40.08
55271;BME280;41132;47.162;9.470;2023-06-22T02:44:18;96284.91;;;25.84;41.17
55271;BME280;41132;47.162;9.470;2023-06-22T02:46:44;96288.09;;;25.81;39.55
55271;BME280;41132;47.162;9.470;2023-06-22T02:49:10;96305.53;;;26.11;39.32
55271;BME280;41132;47.162;9.470;2023-06-22T02:51:38;96316.59;;;26.14;39.25
55271;BME280;41132;47.162;9.470;2023-06-22T02:54:07;96315.31;;;26.27;38.74
55271;BME280;41132;47.162;9.470;2023-06-22T02:56:32;96315.28;;;26.17;39.65
55271;BME280;41132;47.162;9.470;2023-06-22T02:58:58;96312.78;;;26.05;39.59
55271;BME280;41132;47.162;9.470;2023-06-22T03:01:29;96305.72;;;25.94;40.74
55271;BME280;41132;47.162;9.470;2023-06-22T03:03:58;96320.53;;;26.01;39.23
55271;BME280;41132;47.162;9.470;2023-06-22T03:06:24;96313.28;;;26.02;39.11
55271;BME280;41132;47.162;9.470;2023-06-22T03:08:58;96323.00;;;26.08;39.83
55271;BME280;41132;47.162;9.470;2023-06-22T03:11:24;96326.81;;;26.12;39.72
55271;BME280;41132;47.162;9.470;2023-06-22T03:13:49;96331.84;;;26.03;39.75
55271;BME280;41132;47.162;9.470;2023-06-22T03:16:17;96330.72;;;25.94;42.33
55271;BME280;41132;47.162;9.470;2023-06-22T03:18:42;96349.34;;;25.47;42.53
55271;BME280;41132;47.162;9.470;2023-06-22T03:21:08;96345.38;;;25.27;48.60
55271;BME280;41132;47.162;9.470;2023-06-22T03:23:33;96339.09;;;24.94;52.25
55271;BME280;41132;47.162;9.470;2023-06-22T03:25:58;96350.63;;;24.73;53.10
55271;BME280;41132;47.162;9.470;2023-06-22T03:28:24;96353.13;;;24.41;55.87
55271;BME280;41132;47.162;9.470;2023-06-22T03:30:49;96345.25;;;24.12;62.34
55271;BME280;41132;47.162;9.470;2023-06-22T03:33:15;96344.81;;;23.86;66.11
55271;BME280;41132;47.162;9.470;2023-06-22T03:35:40;96339.91;;;23.66;68.75
55271;BME280;41132;47.162;9.470;2023-06-22T03:38:05;96359.16;;;23.63;70.55
55271;BME280;41132;47.162;9.470;2023-06-22T03:40:31;96342.50;;;23.44;72.23
55271;BME280;41132;47.162;9.470;2023-06-22T03:42:56;96343.66;;;23.48;73.99
55271;BME280;41132;47.162;9.470;2023-06-22T03:45:21;96340.75;;;23.21;75.44
55271;BME280;41132;47.162;9.470;2023-06-22T03:47:47;96358.91;;;23.19;78.10
55271;BME280;41132;47.162;9.470;2023-06-22T03:50:12;96346.84;;;23.05;79.11
55271;BME280;41132;47.162;9.470;2023-06-22T03:52:39;96356.44;;;23.01;81.17
55271;BME280;41132;47.162;9.470;2023-06-22T03:55:05;96366.88;;;22.90;82.48
55271;BME280;41132;47.162;9.470;2023-06-22T03:57:31;96355.72;;;22.82;84.01
55271;BME280;41132;47.162;9.470;2023-06-22T03:59:57;96376.09;;;22.83;85.73
55271;BME280;41132;47.162;9.470;2023-06-22T04:02:23;96379.00;;;22.81;87.06
55271;BME280;41132;47.162;9.470;2023-06-22T04:04:48;96392.03;;;22.78;87.58
55271;BME280;41132;47.162;9.470;2023-06-22T04:07:14;96378.81;;;22.71;89.21
55271;BME280;41132;47.162;9.470;2023-06-22T04:09:39;96387.16;;;22.75;89.02
55271;BME280;41132;47.162;9.470;2023-06-22T04:12:05;96393.31;;;22.75;90.27
55271;BME280;41132;47.162;9.470;2023-06-22T04:14:30;96400.44;;;22.69;90.90
55271;BME280;41132;47.162;9.470;2023-06-22T04:16:57;96396.00;;;22.63;92.38
55271;BME280;41132;47.162;9.470;2023-06-22T04:19:22;96394.97;;;22.64;92.34
55271;BME280;41132;47.162;9.470;2023-06-22T04:21:48;96395.44;;;22.61;94.09
55271;BME280;41132;47.162;9.470;2023-06-22T04:24:14;96393.47;;;22.57;93.96
55271;BME280;41132;47.162;9.470;2023-06-22T04:26:39;96402.16;;;22.64;95.09
55271;BME280;41132;47.162;9.470;2023-06-22T04:29:07;96379.88;;;22.46;95.77
55271;BME280;41132;47.162;9.470;2023-06-22T04:31:34;96410.44;;;22.50;97.24
55271;BME280;41132;47.162;9.470;2023-06-22T04:34:04;96411.50;;;22.49;98.29
55271;BME280;41132;47.162;9.470;2023-06-22T04:39:11;96410.09;;;22.47;99.42
55271;BME280;41132;47.162;9.470;2023-06-22T04:41:37;96403.25;;;22.51;100.00
55271;BME280;41132;47.162;9.470;2023-06-22T04:44:17;96406.50;;;22.53;100.00
55271;BME280;41132;47.162;9.470;2023-06-22T04:46:55;96413.56;;;22.59;100.00
55271;BME280;41132;47.162;9.470;2023-06-22T04:49:25;96402.66;;;22.49;100.00
55271;BME280;41132;47.162;9.470;2023-06-22T04:51:58;96408.13;;;22.54;100.00
55271;BME280;41132;47.162;9.470;2023-06-22T04:54:27;96392.66;;;22.56;100.00
55271;BME280;41132;47.162;9.470;2023-06-22T04:56:52;96389.75;;;22.46;100.00
55271;BME280;41132;47.162;9.470;2023-06-22T04:59:34;96391.25;;;22.54;100.00
55271;BME280;41132;47.162;9.470;2023-06-22T05:02:01;96395.69;;;22.60;100.00
55271;BME280;41132;47.162;9.470;2023-06-22T05:04:29;96383.44;;;22.64;100.00
55271;BME280;41132;47.162;9.470;2023-06-22T05:06:57;96381.03;;;22.62;100.00
55271;BME280;41132;47.162;9.470;2023-06-22T05:09:23;96386.72;;;22.54;100.00
55271;BME280;41132;47.162;9.470;2023-06-22T05:11:50;96371.59;;;22.48;100.00
55271;BME280;41132;47.162;9.470;2023-06-22T05:14:16;96374.63;;;22.51;100.00
55271;BME280;41132;47.162;9.470;2023-06-22T05:16:42;96373.56;;;22.52;100.00
55271;BME280;41132;47.162;9.470;2023-06-22T05:19:08;96375.13;;;22.48;100.00
55271;BME280;41132;47.162;9.470;2023-06-22T05:21:34;96369.88;;;22.54;100.00
55271;BME280;41132;47.162;9.470;2023-06-22T05:23:59;96363.88;;;22.75;100.00
55271;BME280;41132;47.162;9.470;2023-06-22T05:26:27;96358.88;;;22.79;100.00
55271;BME280;41132;47.162;9.470;2023-06-22T05:28:53;96363.31;;;22.85;100.00
55271;BME280;41132;47.162;9.470;2023-06-22T05:31:19;96353.44;;;22.73;100.00
55271;BME280;41132;47.162;9.470;2023-06-22T05:33:45;96351.44;;;22.81;100.00
55271;BME280;41132;47.162;9.470;2023-06-22T05:36:11;96356.97;;;22.91;100.00
55271;BME280;41132;47.162;9.470;2023-06-22T05:38:38;96365.00;;;22.91;100.00
55271;BME280;41132;47.162;9.470;2023-06-22T05:41:04;96351.06;;;22.89;100.00
55271;BME280;41132;47.162;9.470;2023-06-22T05:43:30;96362.19;;;22.98;100.00
55271;BME280;41132;47.162;9.470;2023-06-22T05:45:55;96341.41;;;23.00;100.00
55271;BME280;41132;47.162;9.470;2023-06-22T05:48:21;96352.31;;;22.98;100.00
55271;BME280;41132;47.162;9.470;2023-06-22T05:50:47;96327.66;;;22.96;100.00
55271;BME280;41132;47.162;9.470;2023-06-22T05:53:12;96333.00;;;23.08;100.00
55271;BME280;41132;47.162;9.470;2023-06-22T05:55:41;96351.69;;;23.20;100.00
55271;BME280;41132;47.162;9.470;2023-06-22T05:58:08;96327.50;;;23.14;100.00
55271;BME280;41132;47.162;9.470;2023-06-22T06:00:33;96338.34;;;23.08;100.00
55271;BME280;41132;47.162;9.470;2023-06-22T06:02:59;96344.03;;;23.11;100.00
55271;BME280;41132;47.162;9.470;2023-06-22T06:05:29;96328.66;;;23.19;100.00
55271;BME280;41132;47.162;9.470;2023-06-22T06:07:54;96334.94;;;23.41;100.00
55271;BME280;41132;47.162;9.470;2023-06-22T06:10:21;96315.22;;;23.47;100.00
55271;BME280;41132;47.162;9.470;2023-06-22T06:12:48;96334.94;;;23.87;100.00
55271;BME280;41132;47.162;9.470;2023-06-22T06:15:13;96306.78;;;24.23;97.84
55271;BME280;41132;47.162;9.470;2023-06-22T06:17:49;96314.25;;;25.04;92.30
55271;BME280;41132;47.162;9.470;2023-06-22T06:20:18;96315.25;;;25.47;89.52
55271;BME280;41132;47.162;9.470;2023-06-22T06:22:44;96316.69;;;25.60;86.14
55271;BME280;41132;47.162;9.470;2023-06-22T06:25:09;96320.59;;;25.79;85.75
55271;BME280;41132;47.162;9.470;2023-06-22T06:27:35;96323.72;;;25.66;88.48
55271;BME280;41132;47.162;9.470;2023-06-22T06:30:00;96295.47;;;25.58;88.05
55271;BME280;41132;47.162;9.470;2023-06-22T06:32:26;96321.41;;;26.55;86.49
55271;BME280;41132;47.162;9.470;2023-06-22T06:34:51;96312.81;;;27.31;79.69
55271;BME280;41132;47.162;9.470;2023-06-22T06:37:17;96312.84;;;28.18;74.65
55271;BME280;41132;47.162;9.470;2023-06-22T06:39:44;96296.00;;;28.67;71.15
55271;BME280;41132;47.162;9.470;2023-06-22T06:42:09;96282.38;;;28.98;62.82
55271;BME280;41132;47.162;9.470;2023-06-22T06:44:36;96286.28;;;28.71;67.60
55271;BME280;41132;47.162;9.470;2023-06-22T06:47:03;96284.19;;;29.13;65.74
55271;BME280;41132;47.162;9.470;2023-06-22T06:49:29;96278.69;;;29.28;65.73
55271;BME280;41132;47.162;9.470;2023-06-22T06:51:54;96275.75;;;29.59;47.97
55271;BME280;41132;47.162;9.470;2023-06-22T06:54:21;96268.75;;;29.92;38.50
55271;BME280;41132;47.162;9.470;2023-06-22T06:56:46;96239.25;;;29.96;33.97
55271;BME280;41132;47.162;9.470;2023-06-22T06:59:13;96259.91;;;30.11;35.90
55271;BME280;41132;47.162;9.470;2023-06-22T07:01:39;96281.16;;;30.28;49.47
55271;BME280;41132;47.162;9.470;2023-06-22T07:04:04;96254.16;;;29.20;47.61
55271;BME280;41132;47.162;9.470;2023-06-22T07:06:30;96263.91;;;29.15;52.07
55271;BME280;41132;47.162;9.470;2023-06-22T07:08:57;96264.09;;;29.29;35.72
55271;BME280;41132;47.162;9.470;2023-06-22T07:11:22;96238.16;;;29.63;34.86
55271;BME280;41132;47.162;9.470;2023-06-22T07:13:48;96265.44;;;30.01;33.37
55271;BME280;41132;47.162;9.470;2023-06-22T07:16:13;96272.69;;;29.76;36.53
55271;BME280;41132;47.162;9.470;2023-06-22T07:18:39;96273.47;;;28.92;47.12
55271;BME280;41132;47.162;9.470;2023-06-22T07:21:05;96261.59;;;29.77;42.97
55271;BME280;41132;47.162;9.470;2023-06-22T07:23:32;96253.69;;;30.10;32.67
55271;BME280;41132;47.162;9.470;2023-06-22T07:25:57;96263.31;;;30.22;35.02
55271;BME280;41132;47.162;9.470;2023-06-22T07:28:23;96254.88;;;30.28;31.64
55271;BME280;41132;47.162;9.470;2023-06-22T07:30:48;96251.59;;;30.31;30.30
55271;BME280;41132;47.162;9.470;2023-06-22T07:33:13;96257.38;;;30.68;31.18
55271;BME280;41132;47.162;9.470;2023-06-22T07:35:39;96242.69;;;30.74;34.02
55271;BME280;41132;47.162;9.470;2023-06-22T07:38:04;96258.63;;;30.99;34.13
55271;BME280;41132;47.162;9.470;2023-06-22T07:40:30;96271.44;;;31.13;33.41
55271;BME280;41132;47.162;9.470;2023-06-22T07:42:55;96261.09;;;31.86;33.71
55271;BME280;41132;47.162;9.470;2023-06-22T07:45:21;96257.78;;;32.21;32.54
55271;BME280;41132;47.162;9.470;2023-06-22T07:47:46;96246.25;;;33.21;32.71
55271;BME280;41132;47.162;9.470;2023-06-22T07:50:12;96249.47;;;33.46;29.89
55271;BME280;41132;47.162;9.470;2023-06-22T07:52:37;96245.66;;;34.01;29.05
55271;BME280;41132;47.162;9.470;2023-06-22T07:55:03;96233.47;;;34.21;29.85
55271;BME280;41132;47.162;9.470;2023-06-22T07:57:29;96234.63;;;34.06;30.97
55271;BME280;41132;47.162;9.470;2023-06-22T08:00:00;96242.84;;;34.46;29.87
55271;BME280;41132;47.162;9.470;2023-06-22T08:02:26;96240.22;;;34.01;28.80
55271;BME280;41132;47.162;9.470;2023-06-22T08:04:52;96248.03;;;33.94;27.47
55271;BME280;41132;47.162;9.470;2023-06-22T08:07:17;96243.19;;;33.59;28.22
55271;BME280;41132;47.162;9.470;2023-06-22T08:09:48;96252.00;;;33.42;29.32
55271;BME280;41132;47.162;9.470;2023-06-22T08:12:14;96259.94;;;33.16;29.87
55271;BME280;41132;47.162;9.470;2023-06-22T08:14:42;96264.44;;;32.84;30.58
55271;BME280;41132;47.162;9.470;2023-06-22T08:17:09;96264.25;;;32.53;31.17
55271;BME280;41132;47.162;9.470;2023-06-22T08:19:34;96264.34;;;32.34;31.27
55271;BME280;41132;47.162;9.470;2023-06-22T08:21:59;96254.16;;;32.12;29.99
55271;BME280;41132;47.162;9.470;2023-06-22T08:24:25;96272.19;;;32.77;31.06
55271;BME280;41132;47.162;9.470;2023-06-22T08:26:51;96241.47;;;32.77;31.01
55271;BME280;41132;47.162;9.470;2023-06-22T08:29:17;96254.78;;;32.64;30.54
55271;BME280;41132;47.162;9.470;2023-06-22T08:31:42;96273.09;;;32.73;31.12
55271;BME280;41132;47.162;9.470;2023-06-22T08:34:07;96259.09;;;32.65;30.56
55271;BME280;41132;47.162;9.470;2023-06-22T08:36:33;96276.91;;;32.44;30.96
55271;BME280;41132;47.162;9.470;2023-06-22T08:39:03;96291.53;;;32.15;30.53
55271;BME280;41132;47.162;9.470;2023-06-22T08:41:29;96292.13;;;31.98;29.16
55271;BME280;41132;47.162;9.470;2023-06-22T08:43:54;96263.41;;;31.78;30.50
55271;BME280;41132;47.162;9.470;2023-06-22T08:46:20;96285.59;;;31.99;31.01
55271;BME280;41132;47.162;9.470;2023-06-22T08:48:49;96274.88;;;31.89;31.98
55271;BME280;41132;47.162;9.470;2023-06-22T08:51:15;96258.28;;;31.91;31.25
55271;BME280;41132;47.162;9.470;2023-06-22T08:53:41;96273.13;;;31.79;31.11
55271;BME280;41132;47.162;9.470;2023-06-22T08:56:06;96282.63;;;31.82;31.64
55271;BME280;41132;47.162;9.470;2023-06-22T08:58:32;96273.22;;;31.74;31.00
55271;BME280;41132;47.162;9.470;2023-06-22T09:00:57;96294.16;;;31.88;32.07
55271;BME280;41132;47.162;9.470;2023-06-22T09:03:25;96293.25;;;31.78;31.52
55271;BME280;41132;47.162;9.470;2023-06-22T09:05:51;96295.16;;;31.59;32.06
55271;BME280;41132;47.162;9.470;2023-06-22T09:08:16;96306.03;;;31.59;33.62
55271;BME280;41132;47.162;9.470;2023-06-22T09:10:42;96309.91;;;31.15;43.81
55271;BME280;41132;47.162;9.470;2023-06-22T09:13:07;96320.50;;;30.92;47.74
55271;BME280;41132;47.162;9.470;2023-06-22T09:15:33;96329.25;;;30.60;50.76
55271;BME280;41132;47.162;9.470;2023-06-22T09:17:59;96324.81;;;30.16;54.76
55271;BME280;41132;47.162;9.470;2023-06-22T09:20:24;96321.94;;;29.73;58.36
55271;BME280;41132;47.162;9.470;2023-06-22T09:22:50;96344.22;;;29.49;60.54
55271;BME280;41132;47.162;9.470;2023-06-22T09:25:15;96356.75;;;29.35;62.58
55271;BME280;41132;47.162;9.470;2023-06-22T09:27:41;96370.00;;;29.31;63.50
55271;BME280;41132;47.162;9.470;2023-06-22T09:30:06;96356.97;;;28.89;67.31
55271;BME280;41132;47.162;9.470;2023-06-22T09:32:32;96371.28;;;28.84;67.78
55271;BME280;41132;47.162;9.470;2023-06-22T09:34:57;96377.25;;;28.66;69.44
55271;BME280;41132;47.162;9.470;2023-06-22T09:37:23;96393.44;;;28.81;69.62
55271;BME280;41132;47.162;9.470;2023-06-22T09:39:48;96369.72;;;28.63;68.27
55271;BME280;41132;47.162;9.470;2023-06-22T09:42:14;96401.59;;;28.56;71.41
55271;BME280;41132;47.162;9.470;2023-06-22T09:44:39;96384.84;;;28.38;71.38
55271;BME280;41132;47.162;9.470;2023-06-22T09:47:05;96380.78;;;28.41;72.51
55271;BME280;41132;47.162;9.470;2023-06-22T09:49:30;96383.78;;;28.49;69.71
55271;BME280;41132;47.162;9.470;2023-06-22T09:51:57;96382.97;;;28.33;71.31
55271;BME280;41132;47.162;9.470;2023-06-22T09:54:22;96387.06;;;28.21;71.45
55271;BME280;41132;47.162;9.470;2023-06-22T09:56:48;96381.38;;;28.22;71.17
55271;BME280;41132;47.162;9.470;2023-06-22T09:59:13;96381.38;;;28.02;72.73
55271;BME280;41132;47.162;9.470;2023-06-22T10:01:38;96384.06;;;28.02;73.67
55271;BME280;41132;47.162;9.470;2023-06-22T10:04:04;96378.44;;;27.98;73.52
55271;BME280;41132;47.162;9.470;2023-06-22T10:06:29;96374.66;;;27.94;74.32
55271;BME280;41132;47.162;9.470;2023-06-22T10:08:55;96381.09;;;27.88;74.67
55271;BME280;41132;47.162;9.470;2023-06-22T10:11:20;96374.63;;;28.04;74.02
55271;BME280;41132;47.162;9.470;2023-06-22T10:13:48;96366.28;;;28.01;76.33
55271;BME280;41132;47.162;9.470;2023-06-22T10:16:13;96361.41;;;28.08;72.57
55271;BME280;41132;47.162;9.470;2023-06-22T10:18:38;96374.38;;;28.21;70.97
55271;BME280;41132;47.162;9.470;2023-06-22T10:21:04;96361.16;;;28.04;69.63
55271;BME280;41132;47.162;9.470;2023-06-22T10:23:29;96355.78;;;28.09;69.48
55271;BME280;41132;47.162;9.470;2023-06-22T10:25:54;96384.63;;;28.14;69.49
55271;BME280;41132;47.162;9.470;2023-06-22T10:28:22;96358.47;;;27.94;70.04
55271;BME280;41132;47.162;9.470;2023-06-22T10:30:47;96361.16;;;28.04;70.06
55271;BME280;41132;47.162;9.470;2023-06-22T10:33:13;96349.84;;;27.92;69.17
55271;BME280;41132;47.162;9.470;2023-06-22T10:35:38;96375.47;;;28.05;70.66
55271;BME280;41132;47.162;9.470;2023-06-22T10:38:04;96362.50;;;28.12;72.73
55271;BME280;41132;47.162;9.470;2023-06-22T10:40:30;96353.06;;;28.15;72.27
55271;BME280;41132;47.162;9.470;2023-06-22T10:42:55;96360.59;;;28.13;71.54
55271;BME280;41132;47.162;9.470;2023-06-22T10:45:21;96340.13;;;28.01;73.38
55271;BME280;41132;47.162;9.470;2023-06-22T10:47:48;96358.16;;;28.11;73.47
55271;BME280;41132;47.162;9.470;2023-06-22T10:50:14;96352.00;;;28.00;71.88
55271;BME280;41132;47.162;9.470;2023-06-22T10:52:39;96352.25;;;28.04;72.82
55271;BME280;41132;47.162;9.470;2023-06-22T10:55:07;96350.91;;;28.01;76.34
55271;BME280;41132;47.162;9.470;2023-06-22T10:57:32;96336.91;;;27.89;74.40
55271;BME280;41132;47.162;9.470;2023-06-22T10:59:58;96343.91;;;28.05;76.50
55271;BME280;41132;47.162;9.470;2023-06-22T11:02:23;96346.59;;;28.10;72.08
55271;BME280;41132;47.162;9.470;2023-06-22T11:04:49;96355.19;;;28.18;72.29
55271;BME280;41132;47.162;9.470;2023-06-22T11:07:15;96360.88;;;28.26;75.74
55271;BME280;41132;47.162;9.470;2023-06-22T11:09:43;96357.09;;;28.32;72.39
55271;BME280;41132;47.162;9.470;2023-06-22T11:12:08;96354.91;;;28.50;73.12
55271;BME280;41132;47.162;9.470;2023-06-22T11:14:33;96349.78;;;28.38;69.27
55271;BME280;41132;47.162;9.470;2023-06-22T11:16:59;96354.34;;;28.43;71.08
55271;BME280;41132;47.162;9.470;2023-06-22T11:19:24;96339.56;;;27.99;68.79
55271;BME280;41132;47.162;9.470;2023-06-22T11:21:50;96332.84;;;28.12;73.86
55271;BME280;41132;47.162;9.470;2023-06-22T11:24:16;96335.50;;;28.22;71.74
55271;BME280;41132;47.162;9.470;2023-06-22T11:26:42;96330.91;;;28.28;71.77
55271;BME280;41132;47.162;9.470;2023-06-22T11:29:07;96331.44;;;28.25;71.47
55271;BME280;41132;47.162;9.470;2023-06-22T11:31:34;96336.34;;;28.13;72.21
55271;BME280;41132;47.162;9.470;2023-06-22T11:33:59;96331.75;;;28.08;73.57
55271;BME280;41132;47.162;9.470;2023-06-22T11:36:25;96313.69;;;27.98;72.25
55271;BME280;41132;47.162;9.470;2023-06-22T11:38:51;96328.25;;;28.02;73.61
55271;BME280;41132;47.162;9.470;2023-06-22T11:41:22;96332.56;;;28.03;75.61
55271;BME280;41132;47.162;9.470;2023-06-22T11:43:48;96330.94;;;27.97;74.81
55271;BME280;41132;47.162;9.470;2023-06-22T11:46:13;96330.13;;;28.02;78.59
55271;BME280;41132;47.162;9.470;2023-06-22T11:48:39;96337.41;;;28.06;77.11
55271;BME280;41132;47.162;9.470;2023-06-22T11:51:04;96337.97;;;28.03;74.34
55271;BME280;41132;47.162;9.470;2023-06-22T11:53:31;96337.41;;;27.91;74.97
55271;BME280;41132;47.162;9.470;2023-06-22T11:55:56;96334.72;;;27.91;79.34
55271;BME280;41132;47.162;9.470;2023-06-22T11:58:22;96337.69;;;27.89;75.41
55271;BME280;41132;47.162;9.470;2023-06-22T12:00:48;96330.41;;;27.80;77.63
55271;BME280;41132;47.162;9.470;2023-06-22T12:03:14;96334.97;;;28.00;77.08
55271;BME280;41132;47.162;9.470;2023-06-22T12:05:40;96330.16;;;27.92;76.22
55271;BME280;41132;47.162;9.470;2023-06-22T12:08:06;96328.81;;;27.89;76.77
55271;BME280;41132;47.162;9.470;2023-06-22T12:10:31;96322.56;;;27.83;76.88
55271;BME280;41132;47.162;9.470;2023-06-22T12:12:56;96321.22;;;27.81;78.32
55271;BME280;41132;47.162;9.470;2023-06-22T12:15:26;96321.22;;;27.70;77.56
55271;BME280;41132;47.162;9.470;2023-06-22T12:17:52;96329.56;;;27.79;80.55
55271;BME280;41132;47.162;9.470;2023-06-22T12:20:17;96330.13;;;27.76;84.19
55271;BME280;41132;47.162;9.470;2023-06-22T12:22:43;96329.84;;;27.78;81.43
55271;BME280;41132;47.162;9.470;2023-06-22T12:25:10;96328.22;;;27.82;79.94
55271;BME280;41132;47.162;9.470;2023-06-22T12:27:36;96320.41;;;27.70;77.70
55271;BME280;41132;47.162;9.470;2023-06-22T12:30:02;96329.84;;;27.73;77.69
55271;BME280;41132;47.162;9.470;2023-06-22T12:32:28;96324.72;;;27.71;79.11
55271;BME280;41132;47.162;9.470;2023-06-22T12:34:53;96300.19;;;27.57;82.83
55271;BME280;41132;47.162;9.470;2023-06-22T12:37:19;96327.44;;;27.71;80.27
55271;BME280;41132;47.162;9.470;2023-06-22T12:39:44;96314.19;;;27.75;80.88
55271;BME280;41132;47.162;9.470;2023-06-22T12:42:10;96303.16;;;27.76;82.97
55271;BME280;41132;47.162;9.470;2023-06-22T12:44:38;96309.91;;;27.84;80.73
55271;BME280;41132;47.162;9.470;2023-06-22T12:47:04;96303.16;;;27.86;82.17
55271;BME280;41132;47.162;9.470;2023-06-22T12:49:29;96294.81;;;27.88;81.78
55271;BME280;41132;47.162;9.470;2023-06-22T12:51:54;96303.44;;;28.00;81.68
55271;BME280;41132;47.162;9.470;2023-06-22T12:54:20;96304.25;;;28.01;80.65
55271;BME280;41132;47.162;9.470;2023-06-22T12:56:45;96314.22;;;28.10;81.04
55271;BME280;41132;47.162;9.470;2023-06-22T12:59:11;96315.28;;;28.20;81.38
55271;BME280;41132;47.162;9.470;2023-06-22T13:01:36;96302.03;;;28.33;79.58
55271;BME280;41132;47.162;9.470;2023-06-22T13:04:02;96297.72;;;28.32;78.04
55271;BME280;41132;47.162;9.470;2023-06-22T13:06:27;96288.81;;;28.32;76.70
55271;BME280;41132;47.162;9.470;2023-06-22T13:08:53;96280.69;;;28.42;74.97
55271;BME280;41132;47.162;9.470;2023-06-22T13:11:18;96290.41;;;28.43;73.53
55271;BME280;41132;47.162;9.470;2023-06-22T13:13:45;96287.72;;;28.43;75.05
55271;BME280;41132;47.162;9.470;2023-06-22T13:16:10;96297.41;;;28.44;73.12
55271;BME280;41132;47.162;9.470;2023-06-22T13:18:36;96279.06;;;28.36;73.57
55271;BME280;41132;47.162;9.470;2023-06-22T13:21:02;96281.50;;;28.38;75.07